sensor_id;sensor_type;location;lat;lon;timestamp;P1;P2;P0
78678;PMS5003;67994;59.334;13.528;2023-03-20T00:00:00;24.8;17.7;
78678;PMS5003;67994;59.334;13.528;2023-03-20T00:01:00;24.8;17.7;
78678;PMS5003;67994;59.334;13.528;2023-03-20T00:02:00;24.8;17.7;
78678;PMS5003;67994;59.334;13.528;2023-03-20T00:03:00;24.8;17.7;
78678;PMS5003;67994;59.334;13.528;2023-03-20T00:04:00;24.8;17.7;
78678;PMS5003;67994;59.334;13.528;2023-03-20T00:05:00;25.7;20.0;
78678;PMS5003;67994;59.334;13.528;2023-03-20T00:06:00;25.7;20.0;
78678;PMS5003;67994;59.334;13.528;2023-03-20T00:07:00;25.7;20.0;
78678;PMS5003;67994;59.334;13.528;2023-03-20T00:08:00;25.7;20.0;
78678;PMS5003;67994;59.334;13.528;2023-03-20T00:09:00;25.7;20.0;
78678;PMS5003;67994;59.334;13.528;2023-03-20T00:10:00;20.8;16.5;
78678;PMS5003;67994;59.334;13.528;2023-03-20T00:11:00;20.8;16.5;
78678;PMS5003;67994;59.334;13.528;2023-03-20T00:12:00;20.8;16.5;
78678;PMS5003;67994;59.334;13.528;2023-03-20T00:13:00;20.8;16.5;
78678;PMS5003;67994;59.334;13.528;2023-03-20T00:14:00;20.8;16.5;
78678;PMS5003;67994;59.334;13.528;2023-03-20T00:15:00;33.7;26.6;
78678;PMS5003;67994;59.334;13.528;2023-03-20T00:16:00;33.7;26.6;
78678;PMS5003;67994;59.334;13.528;2023-03-20T00:17:00;33.7;26.6;
78678;PMS5003;67994;59.334;13.528;2023-03-20T00:18:00;33.7;26.6;
78678;PMS5003;67994;59.334;13.528;2023-03-20T00:19:00;33.7;26.6;
78678;PMS5003;67994;59.334;13.528;2023-03-20T00:20:00;33.4;25.5;
78678;PMS5003;67994;59.334;13.528;2023-03-20T00:21:00;33.4;25.5;
78678;PMS5003;67994;59.334;13.528;2023-03-20T00:22:00;33.4;25.5;
78678;PMS5003;67994;59.334;13.528;2023-03-20T00:23:00;33.4;25.5;
78678;PMS5003;67994;59.334;13.528;2023-03-20T00:24:00;33.4;25.5;
78678;PMS5003;67994;59.334;13.528;2023-03-20T00:25:00;29.2;24.5;
78678;PMS5003;67994;59.334;13.528;2023-03-20T00:26:00;29.2;24.5;
78678;PMS5003;67994;59.334;13.528;2023-03-20T00:27:00;29.2;24.5;
78678;PMS5003;67994;59.334;13.528;2023-03-20T00:28:00;29.2;24.5;
78678;PMS5003;67994;59.334;13.528;2023-03-20T00:29:00;29.2;24.5;
78678;PMS5003;67994;59.334;13.528;2023-03-20T00:30:00;28.5;25.3;
78678;PMS5003;67994;59.334;13.528;2023-03-20T00:31:00;28.5;25.3;
78678;PMS5003;67994;59.334;13.528;2023-03-20T00:32:00;28.5;25.3;
78678;PMS5003;67994;59.334;13.528;2023-03-20T00:33:00;28.5;25.3;
78678;PMS5003;67994;59.334;13.528;2023-03-20T00:34:00;28.5;25.3;
78678;PMS5003;67994;59.334;13.528;2023-03-20T00:35:00;25.1;21.4;
78678;PMS5003;67994;59.334;13.528;2023-03-20T00:36:00;25.1;21.4;
78678;PMS5003;67994;59.334;13.528;2023-03-20T00:37:00;25.1;21.4;
78678;PMS5003;67994;59.334;13.528;2023-03-20T00:38:00;25.1;21.4;
78678;PMS5003;67994;59.334;13.528;2023-03-20T00:39:00;25.1;21.4;
78678;PMS5003;67994;59.334;13.528;2023-03-20T00:40:00;35.2;24.4;
78678;PMS5003;67994;59.334;13.528;2023-03-20T00:41:00;35.2;24.4;
78678;PMS5003;67994;59.334;13.528;2023-03-20T00:42:00;35.2;24.4;
78678;PMS5003;67994;59.334;13.528;2023-03-20T00:43:00;35.2;24.4;
78678;PMS5003;67994;59.334;13.528;2023-03-20T00:44:01;35.2;24.4;
78678;PMS5003;67994;59.334;13.528;2023-03-20T00:45:00;34.0;29.6;
78678;PMS5003;67994;59.334;13.528;2023-03-20T00:46:00;34.0;29.6;
78678;PMS5003;67994;59.334;13.528;2023-03-20T00:47:00;34.0;29.6;
78678;PMS5003;67994;59.334;13.528;2023-03-20T00:48:00;34.0;29.6;
78678;PMS5003;67994;59.334;13.528;2023-03-20T00:49:00;34.0;29.6;
78678;PMS5003;67994;59.334;13.528;2023-03-20T00:50:00;33.0;27.8;
78678;PMS5003;67994;59.334;13.528;2023-03-20T00:51:00;33.0;27.8;
78678;PMS5003;67994;59.334;13.528;2023-03-20T00:52:00;33.0;27.8;
78678;PMS5003;67994;59.334;13.528;2023-03-20T00:53:00;33.0;27.8;
78678;PMS5003;67994;59.334;13.528;2023-03-20T00:54:00;33.0;27.8;
78678;PMS5003;67994;59.334;13.528;2023-03-20T00:55:00;33.5;24.9;
78678;PMS5003;67994;59.334;13.528;2023-03-20T00:56:00;33.5;24.9;
78678;PMS5003;67994;59.334;13.528;2023-03-20T00:57:00;33.5;24.9;
78678;PMS5003;67994;59.334;13.528;2023-03-20T00:58:00;33.5;24.9;
78678;PMS5003;67994;59.334;13.528;2023-03-20T00:59:00;33.5;24.9;
78678;PMS5003;67994;59.334;13.528;2023-03-20T01:00:02;34.0;27.7;
78678;PMS5003;67994;59.334;13.528;2023-03-20T01:01:00;34.0;27.7;
78678;PMS5003;67994;59.334;13.528;2023-03-20T01:02:00;34.0;27.7;
78678;PMS5003;67994;59.334;13.528;2023-03-20T01:03:00;34.0;27.7;
78678;PMS5003;67994;59.334;13.528;2023-03-20T01:04:00;34.0;27.7;
78678;PMS5003;67994;59.334;13.528;2023-03-20T01:05:00;36.3;28.0;
78678;PMS5003;67994;59.334;13.528;2023-03-20T01:06:00;36.3;28.0;
78678;PMS5003;67994;59.334;13.528;2023-03-20T01:07:00;36.3;28.0;
78678;PMS5003;67994;59.334;13.528;2023-03-20T01:08:00;36.3;28.0;
78678;PMS5003;67994;59.334;13.528;2023-03-20T01:09:00;36.3;28.0;
78678;PMS5003;67994;59.334;13.528;2023-03-20T01:10:00;37.4;31.2;
78678;PMS5003;67994;59.334;13.528;2023-03-20T01:11:00;37.4;31.2;
78678;PMS5003;67994;59.334;13.528;2023-03-20T01:12:00;37.4;31.2;
78678;PMS5003;67994;59.334;13.528;2023-03-20T01:13:00;37.4;31.2;
78678;PMS5003;67994;59.334;13.528;2023-03-20T01:14:00;37.4;31.2;
78678;PMS5003;67994;59.334;13.528;2023-03-20T01:15:00;34.6;24.9;
78678;PMS5003;67994;59.334;13.528;2023-03-20T01:16:00;34.6;24.9;
78678;PMS5003;67994;59.334;13.528;2023-03-20T01:17:00;34.6;24.9;
78678;PMS5003;67994;59.334;13.528;2023-03-20T01:18:00;34.6;24.9;
78678;PMS5003;67994;59.334;13.528;2023-03-20T01:19:00;34.6;24.9;
78678;PMS5003;67994;59.334;13.528;2023-03-20T01:20:00;38.0;25.4;
78678;PMS5003;67994;59.334;13.528;2023-03-20T01:21:00;38.0;25.4;
78678;PMS5003;67994;59.334;13.528;2023-03-20T01:22:00;38.0;25.4;
78678;PMS5003;67994;59.334;13.528;2023-03-20T01:23:00;38.0;25.4;
78678;PMS5003;67994;59.334;13.528;2023-03-20T01:24:00;38.0;25.4;
78678;PMS5003;67994;59.334;13.528;2023-03-20T01:25:00;22.1;20.5;
78678;PMS5003;67994;59.334;13.528;2023-03-20T01:26:00;22.1;20.5;
78678;PMS5003;67994;59.334;13.528;2023-03-20T01:27:00;22.1;20.5;
78678;PMS5003;67994;59.334;13.528;2023-03-20T01:28:00;22.1;20.5;
78678;PMS5003;67994;59.334;13.528;2023-03-20T01:29:00;22.1;20.5;
78678;PMS5003;67994;59.334;13.528;2023-03-20T01:30:00;24.9;20.2;
78678;PMS5003;67994;59.334;13.528;2023-03-20T01:31:00;24.9;20.2;
78678;PMS5003;67994;59.334;13.528;2023-03-20T01:32:00;24.9;20.2;
78678;PMS5003;67994;59.334;13.528;2023-03-20T01:33:00;24.9;20.2;
78678;PMS5003;67994;59.334;13.528;2023-03-20T01:34:02;24.9;20.2;
78678;PMS5003;67994;59.334;13.528;2023-03-20T01:35:00;25.1;21.4;
78678;PMS5003;67994;59.334;13.528;2023-03-20T01:36:00;25.1;21.4;
78678;PMS5003;67994;59.334;13.528;2023-03-20T01:37:00;25.1;21.4;
78678;PMS5003;67994;59.334;13.528;2023-03-20T01:38:00;25.1;21.4;
78678;PMS5003;67994;59.334;13.528;2023-03-20T01:39:00;25.1;21.4;
78678;PMS5003;67994;59.334;13.528;2023-03-20T01:40:00;28.9;25.4;
78678;PMS5003;67994;59.334;13.528;2023-03-20T01:41:00;28.9;25.4;
78678;PMS5003;67994;59.334;13.528;2023-03-20T01:42:00;28.9;25.4;
78678;PMS5003;67994;59.334;13.528;2023-03-20T01:43:00;28.9;25.4;
78678;PMS5003;67994;59.334;13.528;2023-03-20T01:44:00;28.9;25.4;
78678;PMS5003;67994;59.334;13.528;2023-03-20T01:45:00;30.9;18.9;
78678;PMS5003;67994;59.334;13.528;2023-03-20T01:46:01;30.9;18.9;
78678;PMS5003;67994;59.334;13.528;2023-03-20T01:47:00;30.9;18.9;
78678;PMS5003;67994;59.334;13.528;2023-03-20T01:48:01;30.9;18.9;
78678;PMS5003;67994;59.334;13.528;2023-03-20T01:49:04;30.9;18.9;
78678;PMS5003;67994;59.334;13.528;2023-03-20T01:51:00;36.5;21.2;
78678;PMS5003;67994;59.334;13.528;2023-03-20T01:52:00;36.5;21.2;
78678;PMS5003;67994;59.334;13.528;2023-03-20T01:53:02;36.5;21.2;
78678;PMS5003;67994;59.334;13.528;2023-03-20T01:54:01;36.5;21.2;
78678;PMS5003;67994;59.334;13.528;2023-03-20T01:55:00;31.3;25.4;
78678;PMS5003;67994;59.334;13.528;2023-03-20T01:56:00;31.3;25.4;
78678;PMS5003;67994;59.334;13.528;2023-03-20T01:57:01;31.3;25.4;
78678;PMS5003;67994;59.334;13.528;2023-03-20T01:58:01;31.3;25.4;
78678;PMS5003;67994;59.334;13.528;2023-03-20T01:59:01;31.3;25.4;
78678;PMS5003;67994;59.334;13.528;2023-03-20T02:00:00;20.4;19.3;
78678;PMS5003;67994;59.334;13.528;2023-03-20T02:01:00;20.4;19.3;
78678;PMS5003;67994;59.334;13.528;2023-03-20T02:02:00;20.4;19.3;
78678;PMS5003;67994;59.334;13.528;2023-03-20T02:03:00;20.4;19.3;
78678;PMS5003;67994;59.334;13.528;2023-03-20T02:04:00;20.4;19.3;
78678;PMS5003;67994;59.334;13.528;2023-03-20T02:05:01;34.0;23.5;
78678;PMS5003;67994;59.334;13.528;2023-03-20T02:06:00;34.0;23.5;
78678;PMS5003;67994;59.334;13.528;2023-03-20T02:07:00;34.0;23.5;
78678;PMS5003;67994;59.334;13.528;2023-03-20T02:08:04;34.0;23.5;
78678;PMS5003;67994;59.334;13.528;2023-03-20T02:09:00;34.0;23.5;
78678;PMS5003;67994;59.334;13.528;2023-03-20T02:10:00;24.6;20.5;
78678;PMS5003;67994;59.334;13.528;2023-03-20T02:11:00;24.6;20.5;
78678;PMS5003;67994;59.334;13.528;2023-03-20T02:12:00;24.6;20.5;
78678;PMS5003;67994;59.334;13.528;2023-03-20T02:13:00;24.6;20.5;
78678;PMS5003;67994;59.334;13.528;2023-03-20T02:14:00;24.6;20.5;
78678;PMS5003;67994;59.334;13.528;2023-03-20T02:15:00;31.3;24.7;
78678;PMS5003;67994;59.334;13.528;2023-03-20T02:16:02;31.3;24.7;
78678;PMS5003;67994;59.334;13.528;2023-03-20T02:17:00;31.3;24.7;
78678;PMS5003;67994;59.334;13.528;2023-03-20T02:18:00;31.3;24.7;
78678;PMS5003;67994;59.334;13.528;2023-03-20T02:19:00;31.3;24.7;
78678;PMS5003;67994;59.334;13.528;2023-03-20T02:20:03;29.8;24.0;
78678;PMS5003;67994;59.334;13.528;2023-03-20T02:23:06;29.8;24.0;
78678;PMS5003;67994;59.334;13.528;2023-03-20T02:27:04;21.2;17.6;
78678;PMS5003;67994;59.334;13.528;2023-03-20T02:28:06;21.2;17.6;
78678;PMS5003;67994;59.334;13.528;2023-03-20T02:29:05;21.2;17.6;
78678;PMS5003;67994;59.334;13.528;2023-03-20T02:31:05;32.0;23.1;
78678;PMS5003;67994;59.334;13.528;2023-03-20T02:32:11;32.0;23.1;
78678;PMS5003;67994;59.334;13.528;2023-03-20T02:34:07;32.0;23.1;
78678;PMS5003;67994;59.334;13.528;2023-03-20T02:38:03;21.6;18.0;
78678;PMS5003;67994;59.334;13.528;2023-03-20T02:39:05;21.6;18.0;
78678;PMS5003;67994;59.334;13.528;2023-03-20T02:40:02;23.2;18.2;
78678;PMS5003;67994;59.334;13.528;2023-03-20T02:41:00;23.2;18.2;
78678;PMS5003;67994;59.334;13.528;2023-03-20T02:42:01;23.2;18.2;
78678;PMS5003;67994;59.334;13.528;2023-03-20T02:43:01;23.2;18.2;
78678;PMS5003;67994;59.334;13.528;2023-03-20T02:44:01;23.2;18.2;
78678;PMS5003;67994;59.334;13.528;2023-03-20T02:45:02;20.5;17.4;
78678;PMS5003;67994;59.334;13.528;2023-03-20T02:46:02;20.5;17.4;
78678;PMS5003;67994;59.334;13.528;2023-03-20T02:47:01;20.5;17.4;
78678;PMS5003;67994;59.334;13.528;2023-03-20T02:48:03;20.5;17.4;
78678;PMS5003;67994;59.334;13.528;2023-03-20T02:49:01;20.5;17.4;
78678;PMS5003;67994;59.334;13.528;2023-03-20T02:50:02;26.2;17.3;
78678;PMS5003;67994;59.334;13.528;2023-03-20T02:51:01;26.2;17.3;
78678;PMS5003;67994;59.334;13.528;2023-03-20T02:52:01;26.2;17.3;
78678;PMS5003;67994;59.334;13.528;2023-03-20T02:53:03;26.2;17.3;
78678;PMS5003;67994;59.334;13.528;2023-03-20T02:54:02;26.2;17.3;
78678;PMS5003;67994;59.334;13.528;2023-03-20T02:55:03;23.5;16.1;
78678;PMS5003;67994;59.334;13.528;2023-03-20T02:56:02;23.5;16.1;
78678;PMS5003;67994;59.334;13.528;2023-03-20T02:57:00;23.5;16.1;
78678;PMS5003;67994;59.334;13.528;2023-03-20T02:58:01;23.5;16.1;
78678;PMS5003;67994;59.334;13.528;2023-03-20T02:59:01;23.5;16.1;
78678;PMS5003;67994;59.334;13.528;2023-03-20T03:00:03;15.6;13.9;
78678;PMS5003;67994;59.334;13.528;2023-03-20T03:01:01;15.6;13.9;
78678;PMS5003;67994;59.334;13.528;2023-03-20T03:02:02;15.6;13.9;
78678;PMS5003;67994;59.334;13.528;2023-03-20T03:03:03;15.6;13.9;
78678;PMS5003;67994;59.334;13.528;2023-03-20T03:04:01;15.6;13.9;
78678;PMS5003;67994;59.334;13.528;2023-03-20T03:05:00;23.6;20.7;
78678;PMS5003;67994;59.334;13.528;2023-03-20T03:06:01;23.6;20.7;
78678;PMS5003;67994;59.334;13.528;2023-03-20T03:07:00;23.6;20.7;
78678;PMS5003;67994;59.334;13.528;2023-03-20T03:08:00;23.6;20.7;
78678;PMS5003;67994;59.334;13.528;2023-03-20T03:09:01;23.6;20.7;
78678;PMS5003;67994;59.334;13.528;2023-03-20T03:10:00;23.5;20.1;
78678;PMS5003;67994;59.334;13.528;2023-03-20T03:11:01;23.5;20.1;
78678;PMS5003;67994;59.334;13.528;2023-03-20T03:12:01;23.5;20.1;
78678;PMS5003;67994;59.334;13.528;2023-03-20T03:13:00;23.5;20.1;
78678;PMS5003;67994;59.334;13.528;2023-03-20T03:14:00;23.5;20.1;
78678;PMS5003;67994;59.334;13.528;2023-03-20T03:15:00;15.8;14.7;
78678;PMS5003;67994;59.334;13.528;2023-03-20T03:16:00;15.8;14.7;
78678;PMS5003;67994;59.334;13.528;2023-03-20T03:17:00;15.8;14.7;
78678;PMS5003;67994;59.334;13.528;2023-03-20T03:18:00;15.8;14.7;
78678;PMS5003;67994;59.334;13.528;2023-03-20T03:19:02;15.8;14.7;
78678;PMS5003;67994;59.334;13.528;2023-03-20T03:20:01;16.8;13.8;
78678;PMS5003;67994;59.334;13.528;2023-03-20T03:21:00;16.8;13.8;
78678;PMS5003;67994;59.334;13.528;2023-03-20T03:22:00;16.8;13.8;
78678;PMS5003;67994;59.334;13.528;2023-03-20T03:23:00;16.8;13.8;
78678;PMS5003;67994;59.334;13.528;2023-03-20T03:24:00;16.8;13.8;
78678;PMS5003;67994;59.334;13.528;2023-03-20T03:25:00;18.3;15.6;
78678;PMS5003;67994;59.334;13.528;2023-03-20T03:26:01;18.3;15.6;
78678;PMS5003;67994;59.334;13.528;2023-03-20T03:27:00;18.3;15.6;
78678;PMS5003;67994;59.334;13.528;2023-03-20T03:28:02;18.3;15.6;
78678;PMS5003;67994;59.334;13.528;2023-03-20T03:29:00;18.3;15.6;
78678;PMS5003;67994;59.334;13.528;2023-03-20T03:30:01;18.0;16.5;
78678;PMS5003;67994;59.334;13.528;2023-03-20T03:31:00;18.0;16.5;
78678;PMS5003;67994;59.334;13.528;2023-03-20T03:32:00;18.0;16.5;
78678;PMS5003;67994;59.334;13.528;2023-03-20T03:33:05;18.0;16.5;
78678;PMS5003;67994;59.334;13.528;2023-03-20T03:34:00;18.0;16.5;
78678;PMS5003;67994;59.334;13.528;2023-03-20T03:35:00;27.7;22.0;
78678;PMS5003;67994;59.334;13.528;2023-03-20T03:36:02;27.7;22.0;
78678;PMS5003;67994;59.334;13.528;2023-03-20T03:37:01;27.7;22.0;
78678;PMS5003;67994;59.334;13.528;2023-03-20T03:38:00;27.7;22.0;
78678;PMS5003;67994;59.334;13.528;2023-03-20T03:39:00;27.7;22.0;
78678;PMS5003;67994;59.334;13.528;2023-03-20T03:40:02;17.2;13.7;
78678;PMS5003;67994;59.334;13.528;2023-03-20T03:41:05;17.2;13.7;
78678;PMS5003;67994;59.334;13.528;2023-03-20T03:42:02;17.2;13.7;
78678;PMS5003;67994;59.334;13.528;2023-03-20T03:43:00;17.2;13.7;
78678;PMS5003;67994;59.334;13.528;2023-03-20T03:44:03;17.2;13.7;
78678;PMS5003;67994;59.334;13.528;2023-03-20T03:45:01;21.5;13.1;
78678;PMS5003;67994;59.334;13.528;2023-03-20T03:46:01;21.5;13.1;
78678;PMS5003;67994;59.334;13.528;2023-03-20T03:47:01;21.5;13.1;
78678;PMS5003;67994;59.334;13.528;2023-03-20T03:48:00;21.5;13.1;
78678;PMS5003;67994;59.334;13.528;2023-03-20T03:49:00;21.5;13.1;
78678;PMS5003;67994;59.334;13.528;2023-03-20T03:50:01;16.5;11.5;
78678;PMS5003;67994;59.334;13.528;2023-03-20T03:51:00;16.5;11.5;
78678;PMS5003;67994;59.334;13.528;2023-03-20T03:52:01;16.5;11.5;
78678;PMS5003;67994;59.334;13.528;2023-03-20T03:53:01;16.5;11.5;
78678;PMS5003;67994;59.334;13.528;2023-03-20T03:54:01;16.5;11.5;
78678;PMS5003;67994;59.334;13.528;2023-03-20T03:55:01;17.7;13.7;
78678;PMS5003;67994;59.334;13.528;2023-03-20T03:56:00;17.7;13.7;
78678;PMS5003;67994;59.334;13.528;2023-03-20T03:57:00;17.7;13.7;
78678;PMS5003;67994;59.334;13.528;2023-03-20T03:58:00;17.7;13.7;
78678;PMS5003;67994;59.334;13.528;2023-03-20T03:59:00;17.7;13.7;
78678;PMS5003;67994;59.334;13.528;2023-03-20T04:00:00;16.3;14.5;
78678;PMS5003;67994;59.334;13.528;2023-03-20T04:01:00;16.3;14.5;
78678;PMS5003;67994;59.334;13.528;2023-03-20T04:02:00;16.3;14.5;
78678;PMS5003;67994;59.334;13.528;2023-03-20T04:03:00;16.3;14.5;
78678;PMS5003;67994;59.334;13.528;2023-03-20T04:04:00;16.3;14.5;
78678;PMS5003;67994;59.334;13.528;2023-03-20T04:05:00;22.8;20.0;
78678;PMS5003;67994;59.334;13.528;2023-03-20T04:06:00;22.8;20.0;
78678;PMS5003;67994;59.334;13.528;2023-03-20T04:07:00;22.8;20.0;
78678;PMS5003;67994;59.334;13.528;2023-03-20T04:08:00;22.8;20.0;
78678;PMS5003;67994;59.334;13.528;2023-03-20T04:09:00;22.8;20.0;
78678;PMS5003;67994;59.334;13.528;2023-03-20T04:10:00;16.8;12.7;
78678;PMS5003;67994;59.334;13.528;2023-03-20T04:11:00;16.8;12.7;
78678;PMS5003;67994;59.334;13.528;2023-03-20T04:12:00;16.8;12.7;
78678;PMS5003;67994;59.334;13.528;2023-03-20T04:13:00;16.8;12.7;
78678;PMS5003;67994;59.334;13.528;2023-03-20T04:14:00;16.8;12.7;
78678;PMS5003;67994;59.334;13.528;2023-03-20T04:15:00;13.1;10.7;
78678;PMS5003;67994;59.334;13.528;2023-03-20T04:16:00;13.1;10.7;
78678;PMS5003;67994;59.334;13.528;2023-03-20T04:17:00;13.1;10.7;
78678;PMS5003;67994;59.334;13.528;2023-03-20T04:18:00;13.1;10.7;
78678;PMS5003;67994;59.334;13.528;2023-03-20T04:19:00;13.1;10.7;
78678;PMS5003;67994;59.334;13.528;2023-03-20T04:20:00;16.7;13.7;
78678;PMS5003;67994;59.334;13.528;2023-03-20T04:21:00;16.7;13.7;
78678;PMS5003;67994;59.334;13.528;2023-03-20T04:22:00;16.7;13.7;
78678;PMS5003;67994;59.334;13.528;2023-03-20T04:23:00;16.7;13.7;
78678;PMS5003;67994;59.334;13.528;2023-03-20T04:24:00;16.7;13.7;
78678;PMS5003;67994;59.334;13.528;2023-03-20T04:25:00;13.3;13.3;
78678;PMS5003;67994;59.334;13.528;2023-03-20T04:26:00;13.3;13.3;
78678;PMS5003;67994;59.334;13.528;2023-03-20T04:27:00;13.3;13.3;
78678;PMS5003;67994;59.334;13.528;2023-03-20T04:28:00;13.3;13.3;
78678;PMS5003;67994;59.334;13.528;2023-03-20T04:29:00;13.3;13.3;
78678;PMS5003;67994;59.334;13.528;2023-03-20T04:30:00;11.9;10.7;
78678;PMS5003;67994;59.334;13.528;2023-03-20T04:31:00;11.9;10.7;
78678;PMS5003;67994;59.334;13.528;2023-03-20T04:32:00;11.9;10.7;
78678;PMS5003;67994;59.334;13.528;2023-03-20T04:33:00;11.9;10.7;
78678;PMS5003;67994;59.334;13.528;2023-03-20T04:34:00;11.9;10.7;
78678;PMS5003;67994;59.334;13.528;2023-03-20T04:35:00;12.7;11.0;
78678;PMS5003;67994;59.334;13.528;2023-03-20T04:36:00;12.7;11.0;
78678;PMS5003;67994;59.334;13.528;2023-03-20T04:37:00;12.7;11.0;
78678;PMS5003;67994;59.334;13.528;2023-03-20T04:38:00;12.7;11.0;
78678;PMS5003;67994;59.334;13.528;2023-03-20T04:39:00;12.7;11.0;
78678;PMS5003;67994;59.334;13.528;2023-03-20T04:40:00;8.9;8.6;
78678;PMS5003;67994;59.334;13.528;2023-03-20T04:41:00;8.9;8.6;
78678;PMS5003;67994;59.334;13.528;2023-03-20T04:42:00;8.9;8.6;
78678;PMS5003;67994;59.334;13.528;2023-03-20T04:43:00;8.9;8.6;
78678;PMS5003;67994;59.334;13.528;2023-03-20T04:44:00;8.9;8.6;
78678;PMS5003;67994;59.334;13.528;2023-03-20T04:45:00;10.6;10.6;
78678;PMS5003;67994;59.334;13.528;2023-03-20T04:46:00;10.6;10.6;
78678;PMS5003;67994;59.334;13.528;2023-03-20T04:47:00;10.6;10.6;
78678;PMS5003;67994;59.334;13.528;2023-03-20T04:48:00;10.6;10.6;
78678;PMS5003;67994;59.334;13.528;2023-03-20T04:49:00;10.6;10.6;
78678;PMS5003;67994;59.334;13.528;2023-03-20T04:50:00;10.0;8.0;
78678;PMS5003;67994;59.334;13.528;2023-03-20T04:51:00;10.0;8.0;
78678;PMS5003;67994;59.334;13.528;2023-03-20T04:52:00;10.0;8.0;
78678;PMS5003;67994;59.334;13.528;2023-03-20T04:53:00;10.0;8.0;
78678;PMS5003;67994;59.334;13.528;2023-03-20T04:54:00;10.0;8.0;
78678;PMS5003;67994;59.334;13.528;2023-03-20T04:55:00;10.7;9.2;
78678;PMS5003;67994;59.334;13.528;2023-03-20T04:56:00;10.7;9.2;
78678;PMS5003;67994;59.334;13.528;2023-03-20T04:57:00;10.7;9.2;
78678;PMS5003;67994;59.334;13.528;2023-03-20T04:58:00;10.7;9.2;
78678;PMS5003;67994;59.334;13.528;2023-03-20T04:59:00;10.7;9.2;
78678;PMS5003;67994;59.334;13.528;2023-03-20T05:00:00;7.3;4.1;
78678;PMS5003;67994;59.334;13.528;2023-03-20T05:01:00;7.3;4.1;
78678;PMS5003;67994;59.334;13.528;2023-03-20T05:02:00;7.3;4.1;
78678;PMS5003;67994;59.334;13.528;2023-03-20T05:03:00;7.3;4.1;
78678;PMS5003;67994;59.334;13.528;2023-03-20T05:04:00;7.3;4.1;
78678;PMS5003;67994;59.334;13.528;2023-03-20T05:05:00;7.6;5.0;
78678;PMS5003;67994;59.334;13.528;2023-03-20T05:06:00;7.6;5.0;
78678;PMS5003;67994;59.334;13.528;2023-03-20T05:07:00;7.6;5.0;
78678;PMS5003;67994;59.334;13.528;2023-03-20T05:08:00;7.6;5.0;
78678;PMS5003;67994;59.334;13.528;2023-03-20T05:09:00;7.6;5.0;
78678;PMS5003;67994;59.334;13.528;2023-03-20T05:10:00;11.6;9.8;
78678;PMS5003;67994;59.334;13.528;2023-03-20T05:11:00;11.6;9.8;
78678;PMS5003;67994;59.334;13.528;2023-03-20T05:12:00;11.6;9.8;
78678;PMS5003;67994;59.334;13.528;2023-03-20T05:13:00;11.6;9.8;
78678;PMS5003;67994;59.334;13.528;2023-03-20T05:14:00;11.6;9.8;
78678;PMS5003;67994;59.334;13.528;2023-03-20T05:15:00;7.7;7.7;
78678;PMS5003;67994;59.334;13.528;2023-03-20T05:16:00;7.7;7.7;
78678;PMS5003;67994;59.334;13.528;2023-03-20T05:17:00;7.7;7.7;
78678;PMS5003;67994;59.334;13.528;2023-03-20T05:18:00;7.7;7.7;
78678;PMS5003;67994;59.334;13.528;2023-03-20T05:19:00;7.7;7.7;
78678;PMS5003;67994;59.334;13.528;2023-03-20T05:20:00;6.8;5.8;
78678;PMS5003;67994;59.334;13.528;2023-03-20T05:21:00;6.8;5.8;
78678;PMS5003;67994;59.334;13.528;2023-03-20T05:22:00;6.8;5.8;
78678;PMS5003;67994;59.334;13.528;2023-03-20T05:23:00;6.8;5.8;
78678;PMS5003;67994;59.334;13.528;2023-03-20T05:24:00;6.8;5.8;
78678;PMS5003;67994;59.334;13.528;2023-03-20T05:25:00;14.6;6.8;
78678;PMS5003;67994;59.334;13.528;2023-03-20T05:26:00;14.6;6.8;
78678;PMS5003;67994;59.334;13.528;2023-03-20T05:27:00;14.6;6.8;
78678;PMS5003;67994;59.334;13.528;2023-03-20T05:28:00;14.6;6.8;
78678;PMS5003;67994;59.334;13.528;2023-03-20T05:29:00;14.6;6.8;
78678;PMS5003;67994;59.334;13.528;2023-03-20T05:30:00;4.9;4.0;
78678;PMS5003;67994;59.334;13.528;2023-03-20T05:31:00;4.9;4.0;
78678;PMS5003;67994;59.334;13.528;2023-03-20T05:32:00;4.9;4.0;
78678;PMS5003;67994;59.334;13.528;2023-03-20T05:33:00;4.9;4.0;
78678;PMS5003;67994;59.334;13.528;2023-03-20T05:34:00;4.9;4.0;
78678;PMS5003;67994;59.334;13.528;2023-03-20T05:35:00;7.1;7.1;
78678;PMS5003;67994;59.334;13.528;2023-03-20T05:36:00;7.1;7.1;
78678;PMS5003;67994;59.334;13.528;2023-03-20T05:37:00;7.1;7.1;
78678;PMS5003;67994;59.334;13.528;2023-03-20T05:38:00;7.1;7.1;
78678;PMS5003;67994;59.334;13.528;2023-03-20T05:39:00;7.1;7.1;
78678;PMS5003;67994;59.334;13.528;2023-03-20T05:40:00;10.3;5.2;
78678;PMS5003;67994;59.334;13.528;2023-03-20T05:41:00;10.3;5.2;
78678;PMS5003;67994;59.334;13.528;2023-03-20T05:42:00;10.3;5.2;
78678;PMS5003;67994;59.334;13.528;2023-03-20T05:43:00;10.3;5.2;
78678;PMS5003;67994;59.334;13.528;2023-03-20T05:44:00;10.3;5.2;
78678;PMS5003;67994;59.334;13.528;2023-03-20T05:45:00;8.0;5.0;
78678;PMS5003;67994;59.334;13.528;2023-03-20T05:46:00;8.0;5.0;
78678;PMS5003;67994;59.334;13.528;2023-03-20T05:47:00;8.0;5.0;
78678;PMS5003;67994;59.334;13.528;2023-03-20T05:48:00;8.0;5.0;
78678;PMS5003;67994;59.334;13.528;2023-03-20T05:49:00;8.0;5.0;
78678;PMS5003;67994;59.334;13.528;2023-03-20T05:50:00;6.8;5.0;
78678;PMS5003;67994;59.334;13.528;2023-03-20T05:51:00;6.8;5.0;
78678;PMS5003;67994;59.334;13.528;2023-03-20T05:52:00;6.8;5.0;
78678;PMS5003;67994;59.334;13.528;2023-03-20T05:53:00;6.8;5.0;
78678;PMS5003;67994;59.334;13.528;2023-03-20T05:54:00;6.8;5.0;
78678;PMS5003;67994;59.334;13.528;2023-03-20T05:55:00;7.9;5.2;
78678;PMS5003;67994;59.334;13.528;2023-03-20T05:56:00;7.9;5.2;
78678;PMS5003;67994;59.334;13.528;2023-03-20T05:57:00;7.9;5.2;
78678;PMS5003;67994;59.334;13.528;2023-03-20T05:58:00;7.9;5.2;
78678;PMS5003;67994;59.334;13.528;2023-03-20T05:59:00;7.9;5.2;
78678;PMS5003;67994;59.334;13.528;2023-03-20T06:00:00;12.2;9.2;
78678;PMS5003;67994;59.334;13.528;2023-03-20T06:01:00;12.2;9.2;
78678;PMS5003;67994;59.334;13.528;2023-03-20T06:02:00;12.2;9.2;
78678;PMS5003;67994;59.334;13.528;2023-03-20T06:03:00;12.2;9.2;
78678;PMS5003;67994;59.334;13.528;2023-03-20T06:04:00;12.2;9.2;
78678;PMS5003;67994;59.334;13.528;2023-03-20T06:05:00;9.2;5.8;
78678;PMS5003;67994;59.334;13.528;2023-03-20T06:06:00;9.2;5.8;
78678;PMS5003;67994;59.334;13.528;2023-03-20T06:07:00;9.2;5.8;
78678;PMS5003;67994;59.334;13.528;2023-03-20T06:08:00;9.2;5.8;
78678;PMS5003;67994;59.334;13.528;2023-03-20T06:09:00;9.2;5.8;
78678;PMS5003;67994;59.334;13.528;2023-03-20T06:10:00;5.0;2.8;
78678;PMS5003;67994;59.334;13.528;2023-03-20T06:11:00;5.0;2.8;
78678;PMS5003;67994;59.334;13.528;2023-03-20T06:12:00;5.0;2.8;
78678;PMS5003;67994;59.334;13.528;2023-03-20T06:13:00;5.0;2.8;
78678;PMS5003;67994;59.334;13.528;2023-03-20T06:14:00;5.0;2.8;
78678;PMS5003;67994;59.334;13.528;2023-03-20T06:15:00;12.8;9.4;
78678;PMS5003;67994;59.334;13.528;2023-03-20T06:16:00;12.8;9.4;
78678;PMS5003;67994;59.334;13.528;2023-03-20T06:17:00;12.8;9.4;
78678;PMS5003;67994;59.334;13.528;2023-03-20T06:18:00;12.8;9.4;
78678;PMS5003;67994;59.334;13.528;2023-03-20T06:19:00;12.8;9.4;
78678;PMS5003;67994;59.334;13.528;2023-03-20T06:20:00;8.0;8.0;